sensor_id;sensor_type;location;lat;lon;timestamp;temperature;humidity
27795;DHT22;15176;50.844;4.412;2022-12-13T00:01:13;13.30;54.20
27795;DHT22;15176;50.844;4.412;2022-12-13T00:03:41;12.30;54.60
27795;DHT22;15176;50.844;4.412;2022-12-13T00:06:08;12.50;58.50
27795;DHT22;15176;50.844;4.412;2022-12-13T00:08:34;12.60;58.40
27795;DHT22;15176;50.844;4.412;2022-12-13T00:11:02;12.20;57.60
27795;DHT22;15176;50.844;4.412;2022-12-13T00:13:29;12.30;56.80
27795;DHT22;15176;50.844;4.412;2022-12-13T00:15:59;12.50;57.50
27795;DHT22;15176;50.844;4.412;2022-12-13T00:18:25;12.90;58.00
27795;DHT22;15176;50.844;4.412;2022-12-13T00:20:51;13.00;57.30
27795;DHT22;15176;50.844;4.412;2022-12-13T00:23:18;13.30;57.60
27795;DHT22;15176;50.844;4.412;2022-12-13T00:25:44;13.40;56.70
27795;DHT22;15176;50.844;4.412;2022-12-13T00:28:10;13.30;55.40
27795;DHT22;15176;50.844;4.412;2022-12-13T00:30:35;13.10;56.40
27795;DHT22;15176;50.844;4.412;2022-12-13T00:33:01;13.30;56.70
27795;DHT22;15176;50.844;4.412;2022-12-13T00:35:27;13.10;55.70
27795;DHT22;15176;50.844;4.412;2022-12-13T00:37:54;13.10;56.60
27795;DHT22;15176;50.844;4.412;2022-12-13T00:40:20;13.00;57.40
27795;DHT22;15176;50.844;4.412;2022-12-13T00:42:46;13.00;56.40
27795;DHT22;15176;50.844;4.412;2022-12-13T00:45:11;13.10;56.90
27795;DHT22;15176;50.844;4.412;2022-12-13T00:47:37;12.60;56.30
27795;DHT22;15176;50.844;4.412;2022-12-13T00:50:04;12.80;56.80
27795;DHT22;15176;50.844;4.412;2022-12-13T00:52:29;12.80;57.40
27795;DHT22;15176;50.844;4.412;2022-12-13T00:54:55;12.80;58.00
27795;DHT22;15176;50.844;4.412;2022-12-13T00:57:21;13.10;57.90
27795;DHT22;15176;50.844;4.412;2022-12-13T00:59:47;13.00;57.40
27795;DHT22;15176;50.844;4.412;2022-12-13T01:02:13;12.70;54.60
27795;DHT22;15176;50.844;4.412;2022-12-13T01:04:38;12.10;57.10
27795;DHT22;15176;50.844;4.412;2022-12-13T01:07:04;12.00;58.20
27795;DHT22;15176;50.844;4.412;2022-12-13T01:09:30;12.40;60.40
27795;DHT22;15176;50.844;4.412;2022-12-13T01:12:01;12.50;58.40
27795;DHT22;15176;50.844;4.412;2022-12-13T01:14:27;12.70;58.70
27795;DHT22;15176;50.844;4.412;2022-12-13T01:16:53;13.00;58.00
27795;DHT22;15176;50.844;4.412;2022-12-13T01:19:24;12.90;56.70
27795;DHT22;15176;50.844;4.412;2022-12-13T01:21:54;12.90;57.30
27795;DHT22;15176;50.844;4.412;2022-12-13T01:24:20;12.70;57.40
27795;DHT22;15176;50.844;4.412;2022-12-13T01:26:47;12.10;57.50
27795;DHT22;15176;50.844;4.412;2022-12-13T01:29:13;12.40;59.00
27795;DHT22;15176;50.844;4.412;2022-12-13T01:31:39;12.10;57.60
27795;DHT22;15176;50.844;4.412;2022-12-13T01:34:08;12.10;58.70
27795;DHT22;15176;50.844;4.412;2022-12-13T01:36:35;12.40;58.70
27795;DHT22;15176;50.844;4.412;2022-12-13T01:39:01;12.60;58.70
27795;DHT22;15176;50.844;4.412;2022-12-13T01:41:28;12.60;57.50
27795;DHT22;15176;50.844;4.412;2022-12-13T01:43:59;12.70;58.20
27795;DHT22;15176;50.844;4.412;2022-12-13T01:46:31;12.80;58.10
27795;DHT22;15176;50.844;4.412;2022-12-13T01:51:36;13.10;57.30
27795;DHT22;15176;50.844;4.412;2022-12-13T01:54:04;12.90;56.80
27795;DHT22;15176;50.844;4.412;2022-12-13T01:56:36;12.80;56.80
27795;DHT22;15176;50.844;4.412;2022-12-13T01:59:04;12.80;57.40
27795;DHT22;15176;50.844;4.412;2022-12-13T02:01:31;12.40;56.90
27795;DHT22;15176;50.844;4.412;2022-12-13T02:03:57;12.60;57.20
27795;DHT22;15176;50.844;4.412;2022-12-13T02:06:34;12.50;57.90
27795;DHT22;15176;50.844;4.412;2022-12-13T02:09:02;12.40;58.50
27795;DHT22;15176;50.844;4.412;2022-12-13T02:11:28;12.50;57.60
27795;DHT22;15176;50.844;4.412;2022-12-13T02:13:54;12.50;57.70
27795;DHT22;15176;50.844;4.412;2022-12-13T02:25:05;12.20;56.00
27795;DHT22;15176;50.844;4.412;2022-12-13T02:27:49;11.70;58.00
27795;DHT22;15176;50.844;4.412;2022-12-13T02:30:22;11.80;59.10
27795;DHT22;15176;50.844;4.412;2022-12-13T02:33:06;11.80;59.50
27795;DHT22;15176;50.844;4.412;2022-12-13T02:35:50;12.00;58.60
27795;DHT22;15176;50.844;4.412;2022-12-13T02:41:26;12.50;58.50
27795;DHT22;15176;50.844;4.412;2022-12-13T02:46:25;12.70;57.50
27795;DHT22;15176;50.844;4.412;2022-12-13T02:48:54;12.70;56.10
27795;DHT22;15176;50.844;4.412;2022-12-13T02:51:21;12.50;59.20
27795;DHT22;15176;50.844;4.412;2022-12-13T02:53:49;12.50;57.10
27795;DHT22;15176;50.844;4.412;2022-12-13T02:56:14;12.30;58.10
27795;DHT22;15176;50.844;4.412;2022-12-13T02:58:44;11.80;59.10
27795;DHT22;15176;50.844;4.412;2022-12-13T03:12:31;12.60;59.50
27795;DHT22;15176;50.844;4.412;2022-12-13T03:15:24;12.20;56.70
27795;DHT22;15176;50.844;4.412;2022-12-13T03:17:56;12.20;58.60
27795;DHT22;15176;50.844;4.412;2022-12-13T03:20:28;11.10;56.70
27795;DHT22;15176;50.844;4.412;2022-12-13T03:22:55;11.40;62.20
27795;DHT22;15176;50.844;4.412;2022-12-13T03:25:25;11.10;62.20
27795;DHT22;15176;50.844;4.412;2022-12-13T03:27:50;10.70;57.40
27795;DHT22;15176;50.844;4.412;2022-12-13T03:30:17;11.20;58.20
27795;DHT22;15176;50.844;4.412;2022-12-13T03:32:42;11.90;60.80
27795;DHT22;15176;50.844;4.412;2022-12-13T03:35:08;12.10;56.90
27795;DHT22;15176;50.844;4.412;2022-12-13T03:37:34;12.30;58.50
27795;DHT22;15176;50.844;4.412;2022-12-13T03:40:00;11.90;55.30
27795;DHT22;15176;50.844;4.412;2022-12-13T03:42:28;11.60;58.40
27795;DHT22;15176;50.844;4.412;2022-12-13T03:44:54;12.10;58.90
27795;DHT22;15176;50.844;4.412;2022-12-13T03:47:19;12.40;58.00
27795;DHT22;15176;50.844;4.412;2022-12-13T03:49:45;12.50;56.30
27795;DHT22;15176;50.844;4.412;2022-12-13T03:52:11;12.20;55.70
27795;DHT22;15176;50.844;4.412;2022-12-13T03:54:37;12.10;56.70
27795;DHT22;15176;50.844;4.412;2022-12-13T03:57:03;11.50;56.30
27795;DHT22;15176;50.844;4.412;2022-12-13T03:59:28;11.40;59.20
27795;DHT22;15176;50.844;4.412;2022-12-13T04:01:54;11.70;58.70
27795;DHT22;15176;50.844;4.412;2022-12-13T04:04:20;12.10;57.80
27795;DHT22;15176;50.844;4.412;2022-12-13T04:06:45;12.10;57.50
27795;DHT22;15176;50.844;4.412;2022-12-13T04:09:11;12.20;58.30
27795;DHT22;15176;50.844;4.412;2022-12-13T04:11:37;12.30;57.40
27795;DHT22;15176;50.844;4.412;2022-12-13T04:14:25;12.50;57.20
27795;DHT22;15176;50.844;4.412;2022-12-13T04:16:52;12.20;54.80
27795;DHT22;15176;50.844;4.412;2022-12-13T04:19:18;11.70;59.40
27795;DHT22;15176;50.844;4.412;2022-12-13T04:21:44;12.20;59.40
27795;DHT22;15176;50.844;4.412;2022-12-13T04:24:10;12.60;57.90
27795;DHT22;15176;50.844;4.412;2022-12-13T04:26:35;12.60;57.30
27795;DHT22;15176;50.844;4.412;2022-12-13T04:29:01;12.90;57.10
27795;DHT22;15176;50.844;4.412;2022-12-13T04:31:26;13.00;56.70
27795;DHT22;15176;50.844;4.412;2022-12-13T04:33:53;12.40;53.50
27795;DHT22;15176;50.844;4.412;2022-12-13T04:36:19;12.50;56.50
27795;DHT22;15176;50.844;4.412;2022-12-13T04:38:50;12.70;57.30
27795;DHT22;15176;50.844;4.412;2022-12-13T04:41:17;12.90;57.30
27795;DHT22;15176;50.844;4.412;2022-12-13T04:43:44;12.80;55.80
27795;DHT22;15176;50.844;4.412;2022-12-13T04:46:14;12.70;55.60
27795;DHT22;15176;50.844;4.412;2022-12-13T04:48:40;12.60;56.00
27795;DHT22;15176;50.844;4.412;2022-12-13T04:51:06;13.00;57.40
27795;DHT22;15176;50.844;4.412;2022-12-13T04:53:31;13.00;55.20
27795;DHT22;15176;50.844;4.412;2022-12-13T04:55:58;13.00;55.30
27795;DHT22;15176;50.844;4.412;2022-12-13T04:58:24;13.20;55.10
27795;DHT22;15176;50.844;4.412;2022-12-13T05:00:49;12.90;56.50
27795;DHT22;15176;50.844;4.412;2022-12-13T05:03:15;12.90;57.60
27795;DHT22;15176;50.844;4.412;2022-12-13T05:05:41;13.00;56.20
27795;DHT22;15176;50.844;4.412;2022-12-13T05:08:07;12.60;54.00
27795;DHT22;15176;50.844;4.412;2022-12-13T05:10:33;12.00;53.70
27795;DHT22;15176;50.844;4.412;2022-12-13T05:13:00;11.90;56.20
27795;DHT22;15176;50.844;4.412;2022-12-13T05:15:25;11.80;56.60
27795;DHT22;15176;50.844;4.412;2022-12-13T05:17:51;11.50;55.50
27795;DHT22;15176;50.844;4.412;2022-12-13T05:20:17;11.80;56.00
27795;DHT22;15176;50.844;4.412;2022-12-13T05:22:43;11.90;58.70
27795;DHT22;15176;50.844;4.412;2022-12-13T05:25:10;12.20;58.20
27795;DHT22;15176;50.844;4.412;2022-12-13T05:27:36;12.10;56.60
27795;DHT22;15176;50.844;4.412;2022-12-13T05:30:02;12.30;57.60
27795;DHT22;15176;50.844;4.412;2022-12-13T05:32:30;12.40;58.50
27795;DHT22;15176;50.844;4.412;2022-12-13T05:34:55;12.80;57.10
27795;DHT22;15176;50.844;4.412;2022-12-13T05:37:22;12.60;55.90
27795;DHT22;15176;50.844;4.412;2022-12-13T05:39:47;12.00;54.10
27795;DHT22;15176;50.844;4.412;2022-12-13T05:42:13;12.00;59.20
27795;DHT22;15176;50.844;4.412;2022-12-13T05:44:39;12.20;57.90
27795;DHT22;15176;50.844;4.412;2022-12-13T05:47:04;11.90;55.40
27795;DHT22;15176;50.844;4.412;2022-12-13T05:49:30;12.20;58.80
27795;DHT22;15176;50.844;4.412;2022-12-13T05:51:56;12.70;57.90
27795;DHT22;15176;50.844;4.412;2022-12-13T05:54:22;12.60;56.40
27795;DHT22;15176;50.844;4.412;2022-12-13T05:56:47;13.00;56.50
27795;DHT22;15176;50.844;4.412;2022-12-13T05:59:14;12.50;56.30
27795;DHT22;15176;50.844;4.412;2022-12-13T06:01:39;11.80;56.60
27795;DHT22;15176;50.844;4.412;2022-12-13T06:04:05;12.20;59.10
27795;DHT22;15176;50.844;4.412;2022-12-13T06:06:31;12.50;56.60
27795;DHT22;15176;50.844;4.412;2022-12-13T06:08:58;12.60;57.60
27795;DHT22;15176;50.844;4.412;2022-12-13T06:11:24;13.10;56.90
27795;DHT22;15176;50.844;4.412;2022-12-13T06:13:50;13.70;56.80
27795;DHT22;15176;50.844;4.412;2022-12-13T06:16:17;13.80;54.80
27795;DHT22;15176;50.844;4.412;2022-12-13T06:18:42;13.50;53.40
27795;DHT22;15176;50.844;4.412;2022-12-13T06:21:08;13.50;54.80
27795;DHT22;15176;50.844;4.412;2022-12-13T06:23:34;13.60;53.70
27795;DHT22;15176;50.844;4.412;2022-12-13T06:26:05;13.70;54.30
27795;DHT22;15176;50.844;4.412;2022-12-13T06:28:49;13.60;52.70
27795;DHT22;15176;50.844;4.412;2022-12-13T06:31:17;13.20;51.90
27795;DHT22;15176;50.844;4.412;2022-12-13T06:33:46;13.30;55.00
27795;DHT22;15176;50.844;4.412;2022-12-13T06:36:12;14.00;53.80
27795;DHT22;15176;50.844;4.412;2022-12-13T06:38:38;14.50;52.00
27795;DHT22;15176;50.844;4.412;2022-12-13T06:41:12;14.30;50.80
27795;DHT22;15176;50.844;4.412;2022-12-13T06:43:41;14.10;51.00
27795;DHT22;15176;50.844;4.412;2022-12-13T06:46:08;13.70;51.90
27795;DHT22;15176;50.844;4.412;2022-12-13T06:48:34;13.80;52.30
27795;DHT22;15176;50.844;4.412;2022-12-13T06:51:01;13.50;52.10
27795;DHT22;15176;50.844;4.412;2022-12-13T06:53:28;13.60;54.00
27795;DHT22;15176;50.844;4.412;2022-12-13T06:55:54;13.80;52.90
27795;DHT22;15176;50.844;4.412;2022-12-13T06:58:20;14.00;51.70
27795;DHT22;15176;50.844;4.412;2022-12-13T07:00:46;13.90;51.90
27795;DHT22;15176;50.844;4.412;2022-12-13T07:03:12;13.70;52.70
27795;DHT22;15176;50.844;4.412;2022-12-13T07:05:38;13.80;52.30
27795;DHT22;15176;50.844;4.412;2022-12-13T07:08:04;14.00;52.70
27795;DHT22;15176;50.844;4.412;2022-12-13T07:10:31;13.90;52.30
27795;DHT22;15176;50.844;4.412;2022-12-13T07:12:57;14.00;52.20
27795;DHT22;15176;50.844;4.412;2022-12-13T07:15:23;13.90;52.10
27795;DHT22;15176;50.844;4.412;2022-12-13T07:17:49;13.20;50.80
27795;DHT22;15176;50.844;4.412;2022-12-13T07:20:17;13.60;54.20
27795;DHT22;15176;50.844;4.412;2022-12-13T07:22:44;13.90;50.00
27795;DHT22;15176;50.844;4.412;2022-12-13T07:25:14;13.80;50.90
27795;DHT22;15176;50.844;4.412;2022-12-13T07:27:40;13.50;50.50
27795;DHT22;15176;50.844;4.412;2022-12-13T07:30:08;13.70;53.20
27795;DHT22;15176;50.844;4.412;2022-12-13T07:32:33;13.80;51.90
27795;DHT22;15176;50.844;4.412;2022-12-13T07:35:04;13.90;52.30
27795;DHT22;15176;50.844;4.412;2022-12-13T07:37:30;13.20;51.30
27795;DHT22;15176;50.844;4.412;2022-12-13T07:39:58;13.00;51.40
27795;DHT22;15176;50.844;4.412;2022-12-13T07:42:24;12.70;54.80
27795;DHT22;15176;50.844;4.412;2022-12-13T07:44:51;12.20;54.10
27795;DHT22;15176;50.844;4.412;2022-12-13T07:47:16;12.60;56.60
27795;DHT22;15176;50.844;4.412;2022-12-13T07:49:42;12.60;56.00
27795;DHT22;15176;50.844;4.412;2022-12-13T07:52:11;12.60;57.90
27795;DHT22;15176;50.844;4.412;2022-12-13T07:54:51;13.00;58.20
27795;DHT22;15176;50.844;4.412;2022-12-13T07:57:19;12.90;58.00
27795;DHT22;15176;50.844;4.412;2022-12-13T07:59:45;13.10;54.90
27795;DHT22;15176;50.844;4.412;2022-12-13T08:02:12;13.00;54.80
27795;DHT22;15176;50.844;4.412;2022-12-13T08:04:41;13.10;57.70
27795;DHT22;15176;50.844;4.412;2022-12-13T08:07:09;13.50;56.10
27795;DHT22;15176;50.844;4.412;2022-12-13T08:09:36;13.20;51.80
27795;DHT22;15176;50.844;4.412;2022-12-13T08:12:06;13.00;53.40
27795;DHT22;15176;50.844;4.412;2022-12-13T08:14:34;12.80;54.80
27795;DHT22;15176;50.844;4.412;2022-12-13T08:17:03;13.00;57.00
27795;DHT22;15176;50.844;4.412;2022-12-13T08:19:37;13.40;53.80
27795;DHT22;15176;50.844;4.412;2022-12-13T08:22:03;13.00;52.40
27795;DHT22;15176;50.844;4.412;2022-12-13T08:24:30;12.50;51.50
27795;DHT22;15176;50.844;4.412;2022-12-13T08:27:01;12.20;53.00
27795;DHT22;15176;50.844;4.412;2022-12-13T08:29:28;11.90;54.20
27795;DHT22;15176;50.844;4.412;2022-12-13T08:32:03;12.00;57.60
27795;DHT22;15176;50.844;4.412;2022-12-13T08:34:32;11.60;55.10
27795;DHT22;15176;50.844;4.412;2022-12-13T08:36:58;11.40;53.60
27795;DHT22;15176;50.844;4.412;2022-12-13T08:39:24;11.40;55.30
27795;DHT22;15176;50.844;4.412;2022-12-13T08:41:53;11.70;56.80
27795;DHT22;15176;50.844;4.412;2022-12-13T08:44:19;11.70;57.20
27795;DHT22;15176;50.844;4.412;2022-12-13T08:46:45;12.10;59.40
27795;DHT22;15176;50.844;4.412;2022-12-13T08:49:11;12.20;58.50
27795;DHT22;15176;50.844;4.412;2022-12-13T08:51:36;12.30;58.70
27795;DHT22;15176;50.844;4.412;2022-12-13T08:54:03;12.90;59.10
27795;DHT22;15176;50.844;4.412;2022-12-13T08:56:32;12.90;57.40
27795;DHT22;15176;50.844;4.412;2022-12-13T08:59:05;13.30;57.10
27795;DHT22;15176;50.844;4.412;2022-12-13T09:01:33;12.70;56.80
27795;DHT22;15176;50.844;4.412;2022-12-13T09:04:00;13.10;57.60
27795;DHT22;15176;50.844;4.412;2022-12-13T09:06:26;13.00;52.80
27795;DHT22;15176;50.844;4.412;2022-12-13T09:08:55;13.00;51.50
27795;DHT22;15176;50.844;4.412;2022-12-13T09:11:21;12.70;51.80
27795;DHT22;15176;50.844;4.412;2022-12-13T09:13:50;12.50;54.30
27795;DHT22;15176;50.844;4.412;2022-12-13T09:16:18;13.10;58.00
27795;DHT22;15176;50.844;4.412;2022-12-13T09:18:47;13.30;54.00
27795;DHT22;15176;50.844;4.412;2022-12-13T09:21:14;11.40;53.70
27795;DHT22;15176;50.844;4.412;2022-12-13T09:23:43;11.90;59.80
27795;DHT22;15176;50.844;4.412;2022-12-13T09:26:14;13.20;58.70
27795;DHT22;15176;50.844;4.412;2022-12-13T09:28:41;13.00;54.50
27795;DHT22;15176;50.844;4.412;2022-12-13T09:31:16;13.00;52.30
27795;DHT22;15176;50.844;4.412;2022-12-13T09:33:46;13.00;51.50
27795;DHT22;15176;50.844;4.412;2022-12-13T09:36:20;13.50;52.80
27795;DHT22;15176;50.844;4.412;2022-12-13T09:38:46;13.70;50.00
27795;DHT22;15176;50.844;4.412;2022-12-13T09:41:33;13.30;50.80
27795;DHT22;15176;50.844;4.412;2022-12-13T09:44:22;12.80;49.40
27795;DHT22;15176;50.844;4.412;2022-12-13T09:46:50;12.00;50.60
27795;DHT22;15176;50.844;4.412;2022-12-13T09:49:39;11.90;56.60
27795;DHT22;15176;50.844;4.412;2022-12-13T09:52:10;13.00;55.70
27795;DHT22;15176;50.844;4.412;2022-12-13T09:54:38;14.70;53.40
27795;DHT22;15176;50.844;4.412;2022-12-13T09:57:18;15.10;46.50
27795;DHT22;15176;50.844;4.412;2022-12-13T09:59:51;14.50;49.00
27795;DHT22;15176;50.844;4.412;2022-12-13T10:02:29;14.90;48.60
27795;DHT22;15176;50.844;4.412;2022-12-13T10:10:44;16.90;44.70
27795;DHT22;15176;50.844;4.412;2022-12-13T10:15:59;19.40;40.70
27795;DHT22;15176;50.844;4.412;2022-12-13T10:18:36;20.10;38.30
27795;DHT22;15176;50.844;4.412;2022-12-13T10:21:17;19.70;38.10
27795;DHT22;15176;50.844;4.412;2022-12-13T10:23:44;19.20;39.30
27795;DHT22;15176;50.844;4.412;2022-12-13T10:26:11;19.60;38.00
27795;DHT22;15176;50.844;4.412;2022-12-13T10:28:39;19.20;37.80
27795;DHT22;15176;50.844;4.412;2022-12-13T10:31:15;19.20;39.10
27795;DHT22;15176;50.844;4.412;2022-12-13T10:33:51;19.50;39.20
27795;DHT22;15176;50.844;4.412;2022-12-13T10:36:34;20.30;37.40
27795;DHT22;15176;50.844;4.412;2022-12-13T10:39:00;18.40;38.50
27795;DHT22;15176;50.844;4.412;2022-12-13T10:41:37;18.00;40.50
27795;DHT22;15176;50.844;4.412;2022-12-13T10:52:25;17.60;40.70
27795;DHT22;15176;50.844;4.412;2022-12-13T10:54:52;17.50;39.00
27795;DHT22;15176;50.844;4.412;2022-12-13T10:57:37;17.90;39.10
27795;DHT22;15176;50.844;4.412;2022-12-13T11:02:55;17.60;38.00
27795;DHT22;15176;50.844;4.412;2022-12-13T11:05:33;17.10;40.80
27795;DHT22;15176;50.844;4.412;2022-12-13T11:08:39;16.70;42.30
27795;DHT22;15176;50.844;4.412;2022-12-13T11:11:10;16.60;43.00
27795;DHT22;15176;50.844;4.412;2022-12-13T11:13:51;17.10;43.80
27795;DHT22;15176;50.844;4.412;2022-12-13T11:16:38;18.10;41.20
27795;DHT22;15176;50.844;4.412;2022-12-13T11:19:30;19.40;41.10
27795;DHT22;15176;50.844;4.412;2022-12-13T11:21:59;19.20;39.30
27795;DHT22;15176;50.844;4.412;2022-12-13T11:35:57;20.10;38.30
27795;DHT22;15176;50.844;4.412;2022-12-13T11:42:46;20.00;38.20
27795;DHT22;15176;50.844;4.412;2022-12-13T11:47:19;18.20;39.40
27795;DHT22;15176;50.844;4.412;2022-12-13T11:49:47;16.70;37.90
27795;DHT22;15176;50.844;4.412;2022-12-13T11:52:20;15.90;40.90
27795;DHT22;15176;50.844;4.412;2022-12-13T11:55:10;16.50;40.30
27795;DHT22;15176;50.844;4.412;2022-12-13T11:58:02;15.00;46.30
27795;DHT22;15176;50.844;4.412;2022-12-13T12:01:07;15.40;43.60
27795;DHT22;15176;50.844;4.412;2022-12-13T12:06:14;14.60;45.60
27795;DHT22;15176;50.844;4.412;2022-12-13T12:09:12;15.80;45.60
27795;DHT22;15176;50.844;4.412;2022-12-13T12:12:00;15.90;43.20
27795;DHT22;15176;50.844;4.412;2022-12-13T12:15:07;14.10;46.10
27795;DHT22;15176;50.844;4.412;2022-12-13T12:17:45;12.90;49.10
27795;DHT22;15176;50.844;4.412;2022-12-13T12:26:20;13.90;50.30
27795;DHT22;15176;50.844;4.412;2022-12-13T12:47:29;13.80;49.80
27795;DHT22;15176;50.844;4.412;2022-12-13T13:04:18;12.80;49.20
27795;DHT22;15176;50.844;4.412;2022-12-13T13:06:57;13.20;49.00
27795;DHT22;15176;50.844;4.412;2022-12-13T13:09:25;13.00;49.40
27795;DHT22;15176;50.844;4.412;2022-12-13T13:11:52;12.60;50.00
27795;DHT22;15176;50.844;4.412;2022-12-13T13:14:33;12.30;49.80
27795;DHT22;15176;50.844;4.412;2022-12-13T13:19:49;11.10;51.70
27795;DHT22;15176;50.844;4.412;2022-12-13T13:22:28;11.90;53.80
27795;DHT22;15176;50.844;4.412;2022-12-13T13:25:21;12.30;53.70
27795;DHT22;15176;50.844;4.412;2022-12-13T13:28:14;12.60;51.30
27795;DHT22;15176;50.844;4.412;2022-12-13T13:31:13;12.50;51.40
27795;DHT22;15176;50.844;4.412;2022-12-13T13:33:48;12.10;50.40
27795;DHT22;15176;50.844;4.412;2022-12-13T13:36:55;12.20;51.40
27795;DHT22;15176;50.844;4.412;2022-12-13T13:42:16;12.40;51.40
27795;DHT22;15176;50.844;4.412;2022-12-13T13:47:41;11.50;51.00
27795;DHT22;15176;50.844;4.412;2022-12-13T13:59:04;9.70;58.40
27795;DHT22;15176;50.844;4.412;2022-12-13T14:04:57;10.20;57.50
27795;DHT22;15176;50.844;4.412;2022-12-13T14:10:28;8.40;58.80
27795;DHT22;15176;50.844;4.412;2022-12-13T14:18:53;9.30;58.40
27795;DHT22;15176;50.844;4.412;2022-12-13T14:21:35;9.30;58.50
27795;DHT22;15176;50.844;4.412;2022-12-13T14:24:24;8.70;57.90
27795;DHT22;15176;50.844;4.412;2022-12-13T14:29:41;8.70;64.70
27795;DHT22;15176;50.844;4.412;2022-12-13T14:32:29;8.90;61.60
27795;DHT22;15176;50.844;4.412;2022-12-13T14:35:00;8.90;60.20
27795;DHT22;15176;50.844;4.412;2022-12-13T14:37:29;10.00;60.10
27795;DHT22;15176;50.844;4.412;2022-12-13T14:39:56;9.90;56.70
27795;DHT22;15176;50.844;4.412;2022-12-13T14:42:27;9.90;59.00
27795;DHT22;15176;50.844;4.412;2022-12-13T14:45:22;10.60;59.50
27795;DHT22;15176;50.844;4.412;2022-12-13T14:47:53;11.00;55.50
27795;DHT22;15176;50.844;4.412;2022-12-13T14:50:21;10.70;55.10
27795;DHT22;15176;50.844;4.412;2022-12-13T14:52:49;10.00;57.90
27795;DHT22;15176;50.844;4.412;2022-12-13T14:55:30;10.30;58.30
27795;DHT22;15176;50.844;4.412;2022-12-13T14:57:59;10.80;55.80
27795;DHT22;15176;50.844;4.412;2022-12-13T15:00:34;10.40;58.50
27795;DHT22;15176;50.844;4.412;2022-12-13T15:03:02;11.20;57.90
27795;DHT22;15176;50.844;4.412;2022-12-13T15:05:41;11.20;56.10
27795;DHT22;15176;50.844;4.412;2022-12-13T15:08:09;11.20;55.10
27795;DHT22;15176;50.844;4.412;2022-12-13T15:10:45;11.90;58.00
27795;DHT22;15176;50.844;4.412;2022-12-13T15:15:57;13.30;53.30
27795;DHT22;15176;50.844;4.412;2022-12-13T15:18:32;12.70;51.70
27795;DHT22;15176;50.844;4.412;2022-12-13T15:21:02;12.70;54.60
27795;DHT22;15176;50.844;4.412;2022-12-13T15:23:31;12.50;52.20
27795;DHT22;15176;50.844;4.412;2022-12-13T15:26:16;12.00;53.30
27795;DHT22;15176;50.844;4.412;2022-12-13T15:28:49;12.10;53.80
27795;DHT22;15176;50.844;4.412;2022-12-13T15:31:18;11.70;55.10
27795;DHT22;15176;50.844;4.412;2022-12-13T15:33:47;11.80;53.60
27795;DHT22;15176;50.844;4.412;2022-12-13T15:36:37;11.40;56.00
27795;DHT22;15176;50.844;4.412;2022-12-13T15:39:03;10.20;55.90
27795;DHT22;15176;50.844;4.412;2022-12-13T15:41:35;10.40;57.20
27795;DHT22;15176;50.844;4.412;2022-12-13T15:44:22;10.40;57.70
27795;DHT22;15176;50.844;4.412;2022-12-13T15:46:51;10.40;57.30
27795;DHT22;15176;50.844;4.412;2022-12-13T15:49:54;10.70;57.50
27795;DHT22;15176;50.844;4.412;2022-12-13T15:57:52;11.00;55.70
27795;DHT22;15176;50.844;4.412;2022-12-13T16:00:21;10.70;58.00
27795;DHT22;15176;50.844;4.412;2022-12-13T16:05:26;10.70;60.10
27795;DHT22;15176;50.844;4.412;2022-12-13T16:07:53;10.60;58.10
27795;DHT22;15176;50.844;4.412;2022-12-13T16:10:20;10.90;58.00
27795;DHT22;15176;50.844;4.412;2022-12-13T16:15:28;11.00;58.10
27795;DHT22;15176;50.844;4.412;2022-12-13T16:18:11;11.20;59.50
27795;DHT22;15176;50.844;4.412;2022-12-13T16:20:37;11.60;58.90
27795;DHT22;15176;50.844;4.412;2022-12-13T16:23:02;12.10;56.60
27795;DHT22;15176;50.844;4.412;2022-12-13T16:25:29;11.10;56.50
27795;DHT22;15176;50.844;4.412;2022-12-13T16:27:55;10.90;57.70
27795;DHT22;15176;50.844;4.412;2022-12-13T16:30:48;11.30;58.70
27795;DHT22;15176;50.844;4.412;2022-12-13T16:33:10;11.10;57.40
27795;DHT22;15176;50.844;4.412;2022-12-13T16:35:36;9.50;60.50
27795;DHT22;15176;50.844;4.412;2022-12-13T16:38:03;8.80;62.10
27795;DHT22;15176;50.844;4.412;2022-12-13T16:40:30;8.50;65.50
27795;DHT22;15176;50.844;4.412;2022-12-13T16:43:02;8.90;66.60
27795;DHT22;15176;50.844;4.412;2022-12-13T16:45:34;8.90;64.70
27795;DHT22;15176;50.844;4.412;2022-12-13T16:48:02;9.80;65.80
27795;DHT22;15176;50.844;4.412;2022-12-13T16:50:29;10.40;61.80
27795;DHT22;15176;50.844;4.412;2022-12-13T16:52:55;10.10;60.40
27795;DHT22;15176;50.844;4.412;2022-12-13T16:55:21;10.00;64.80
27795;DHT22;15176;50.844;4.412;2022-12-13T16:57:58;9.20;62.90
27795;DHT22;15176;50.844;4.412;2022-12-13T17:00:24;9.60;64.90
27795;DHT22;15176;50.844;4.412;2022-12-13T17:02:54;9.20;63.70
27795;DHT22;15176;50.844;4.412;2022-12-13T17:05:25;9.30;66.50
27795;DHT22;15176;50.844;4.412;2022-12-13T17:08:01;9.60;66.40
27795;DHT22;15176;50.844;4.412;2022-12-13T17:10:29;10.10;63.70
27795;DHT22;15176;50.844;4.412;2022-12-13T17:12:55;9.60;61.90
27795;DHT22;15176;50.844;4.412;2022-12-13T17:15:21;9.60;65.30
27795;DHT22;15176;50.844;4.412;2022-12-13T17:17:47;9.50;65.70
27795;DHT22;15176;50.844;4.412;2022-12-13T17:20:15;9.50;65.00
27795;DHT22;15176;50.844;4.412;2022-12-13T17:22:44;9.10;63.90
27795;DHT22;15176;50.844;4.412;2022-12-13T17:25:10;8.80;66.30
27795;DHT22;15176;50.844;4.412;2022-12-13T17:27:37;8.80;68.20
27795;DHT22;15176;50.844;4.412;2022-12-13T17:30:09;9.00;67.60
27795;DHT22;15176;50.844;4.412;2022-12-13T17:32:35;9.30;65.60
27795;DHT22;15176;50.844;4.412;2022-12-13T17:35:02;9.00;64.80
27795;DHT22;15176;50.844;4.412;2022-12-13T17:37:29;9.10;68.10
27795;DHT22;15176;50.844;4.412;2022-12-13T17:39:55;8.40;67.30
27795;DHT22;15176;50.844;4.412;2022-12-13T17:42:21;8.30;70.20
27795;DHT22;15176;50.844;4.412;2022-12-13T17:44:47;8.50;68.20
27795;DHT22;15176;50.844;4.412;2022-12-13T17:47:13;9.20;70.80
27795;DHT22;15176;50.844;4.412;2022-12-13T17:49:39;10.00;69.30
27795;DHT22;15176;50.844;4.412;2022-12-13T17:52:05;10.70;66.80
27795;DHT22;15176;50.844;4.412;2022-12-13T17:54:31;11.30;62.20
27795;DHT22;15176;50.844;4.412;2022-12-13T17:56:57;10.40;61.00
27795;DHT22;15176;50.844;4.412;2022-12-13T17:59:26;9.80;61.60
27795;DHT22;15176;50.844;4.412;2022-12-13T18:01:52;8.70;67.20
27795;DHT22;15176;50.844;4.412;2022-12-13T18:04:19;9.40;67.20
27795;DHT22;15176;50.844;4.412;2022-12-13T18:06:48;10.20;68.30
27795;DHT22;15176;50.844;4.412;2022-12-13T18:09:21;10.20;66.00
27795;DHT22;15176;50.844;4.412;2022-12-13T18:11:47;10.10;66.90
27795;DHT22;15176;50.844;4.412;2022-12-13T18:14:13;9.80;64.20
27795;DHT22;15176;50.844;4.412;2022-12-13T18:16:39;9.60;65.10
27795;DHT22;15176;50.844;4.412;2022-12-13T18:19:06;9.80;65.40
27795;DHT22;15176;50.844;4.412;2022-12-13T18:21:33;9.60;67.10
27795;DHT22;15176;50.844;4.412;2022-12-13T18:24:03;10.40;65.50